EGHH/BOH METAR and TAF weather

Enter ICAO airport designator
Station Type Date Time Source
EGHH METAR 2022/05/24 21:50 UTC NOAA

EGHH 242150Z 23002KT CAVOK 10/06 Q1012


Station Type Date Time Source
EGHH Decoded METAR 2022/05/24 21:50 UTC NOAA

Bournemouth Airport, United Kingdom (EGHH) 50-47N 001-50W 0M
May 24, 2022 - 05:50 PM EDT / 2022.05.24 2150 UTC
Wind: from the SW (230 degrees) at 2 MPH (2 KT):0
Visibility: greater than 7 mile(s):0
Temperature: 50 F (10 C)
Dew Point: 42 F (6 C)
Relative Humidity: 76%
Pressure (altimeter): 29.88 in. Hg (1012 hPa)
ob: EGHH 242150Z 23002KT CAVOK 10/06 Q1012
cycle: 22

Station Type Date Time Source
EGHH TAF 2021/10/07 18:59 UTC NOAA

TAF EGHH 071752Z 0718/0823 CNL

Example: see airport list